createdAt,value
2019-04-20T00:01:07.460Z,5.83
2019-04-20T00:03:41.720Z,5.77
2019-04-20T00:06:11.166Z,6.28
2019-04-20T00:08:43.133Z,5.70
2019-04-20T00:11:24.908Z,5.90
2019-04-20T00:13:54.979Z,6.40
2019-04-20T00:16:21.066Z,5.53
2019-04-20T00:18:55.631Z,5.90
2019-04-20T00:21:47.293Z,6.77
2019-04-20T00:24:26.889Z,5.73
2019-04-20T00:29:47.824Z,5.65
2019-04-20T00:32:11.456Z,4.90
2019-04-20T00:34:35.078Z,4.40
2019-04-20T00:37:02.321Z,4.75
2019-04-20T00:39:34.006Z,4.42
2019-04-20T00:42:10.719Z,4.33
2019-04-20T00:44:39.555Z,4.20
2019-04-20T00:47:19.990Z,4.40
2019-04-20T00:49:52.741Z,4.20
2019-04-20T00:52:44.744Z,4.30
2019-04-20T00:54:47.312Z,4.30
2019-04-20T00:57:24.497Z,4.35
2019-04-20T01:00:14.810Z,4.23
2019-04-20T01:02:36.120Z,4.37
2019-04-20T01:05:12.814Z,3.90
2019-04-20T01:07:46.813Z,4.23
2019-04-20T01:10:15.227Z,4.50
2019-04-20T01:12:47.134Z,4.00
2019-04-20T01:15:28.047Z,4.00
2019-04-20T01:17:50.436Z,4.07
2019-04-20T01:20:22.651Z,4.43
2019-04-20T01:23:00.193Z,4.03
2019-04-20T01:25:32.304Z,4.50
2019-04-20T01:28:14.872Z,4.43
2019-04-20T01:30:35.942Z,4.40
2019-04-20T01:33:18.837Z,4.53
2019-04-20T01:35:50.196Z,4.10
2019-04-20T01:38:29.350Z,4.33
2019-04-20T01:40:40.157Z,4.10
2019-04-20T01:43:12.077Z,4.07
2019-04-20T01:45:44.058Z,4.20
2019-04-20T01:48:22.034Z,4.53
2019-04-20T01:50:54.819Z,4.47
2019-04-20T01:53:41.228Z,4.60
2019-04-20T01:56:12.458Z,4.80
2019-04-20T01:59:04.668Z,4.63
2019-04-20T02:01:34.361Z,4.70
2019-04-20T02:04:15.807Z,4.70
2019-04-20T02:06:48.080Z,4.67
2019-04-20T02:09:19.126Z,5.00
2019-04-20T02:11:48.787Z,5.20
2019-04-20T02:14:25.642Z,5.13
2019-04-20T02:17:01.504Z,4.90
2019-04-20T02:19:34.720Z,4.80
2019-04-20T02:22:07.649Z,5.10
2019-04-20T02:24:27.937Z,5.60
2019-04-20T02:26:59.781Z,5.60
2019-04-20T02:29:57.047Z,6.13
2019-04-20T02:32:28.491Z,6.53
2019-04-20T02:35:09.354Z,5.90
2019-04-20T02:38:08.437Z,6.70
2019-04-20T02:43:09.350Z,6.90
2019-04-20T02:48:15.710Z,7.30
2019-04-20T02:50:38.650Z,7.83
2019-04-20T02:53:15.539Z,7.97
2019-04-20T02:55:41.718Z,8.30
2019-04-20T03:00:38.251Z,9.00
2019-04-20T03:03:02.587Z,9.20
2019-04-20T03:05:30.758Z,9.83
2019-04-20T03:08:12.447Z,10.30
2019-04-20T03:10:52.675Z,9.33
2019-04-20T03:13:18.606Z,9.90
2019-04-20T03:15:48.330Z,10.10
2019-04-20T03:18:25.543Z,9.90
2019-04-20T03:21:00.967Z,10.50
2019-04-20T03:26:07.760Z,9.53
2019-04-20T03:28:56.968Z,9.67
2019-04-20T03:34:38.285Z,10.37
2019-04-20T03:36:46.899Z,11.33
2019-04-20T03:39:13.256Z,11.10
2019-04-20T03:41:35.220Z,10.93
2019-04-20T03:44:04.060Z,11.30
2019-04-20T03:46:41.937Z,11.53
2019-04-20T03:49:20.051Z,12.20
2019-04-20T03:51:58.828Z,12.27
2019-04-20T03:54:39.386Z,11.80
2019-04-20T03:57:26.578Z,11.57
2019-04-20T04:00:24.921Z,11.20
2019-04-20T04:03:09.342Z,11.37
2019-04-20T04:05:32.477Z,12.07
2019-04-20T04:08:00.108Z,11.27
2019-04-20T04:10:30.373Z,11.27
2019-04-20T04:13:14.797Z,11.57
2019-04-20T04:15:51.943Z,11.87
2019-04-20T04:18:29.131Z,12.47
2019-04-20T04:21:03.067Z,11.60
2019-04-20T04:23:44.542Z,11.93
2019-04-20T04:26:18.726Z,11.93
2019-04-20T04:28:48.996Z,12.77
2019-04-20T04:31:26.301Z,11.93
2019-04-20T04:33:58.011Z,12.43
2019-04-20T04:36:26.016Z,12.27
2019-04-20T04:39:08.781Z,11.60
2019-04-20T04:41:36.445Z,12.27
2019-04-20T04:44:03.536Z,13.03
2019-04-20T04:46:22.679Z,12.03
2019-04-20T04:48:59.803Z,12.97
2019-04-20T04:51:33.310Z,11.93
2019-04-20T04:54:03.926Z,12.53
2019-04-20T04:56:30.818Z,12.63
2019-04-20T04:59:02.379Z,12.53
2019-04-20T05:01:35.597Z,13.70
2019-04-20T05:04:25.127Z,13.40
2019-04-20T05:06:55.863Z,13.27
2019-04-20T05:09:14.837Z,13.17
2019-04-20T05:11:42.799Z,13.13
2019-04-20T05:14:19.375Z,13.53
2019-04-20T05:17:01.564Z,13.17
2019-04-20T05:19:41.659Z,13.40
2019-04-20T05:22:14.885Z,13.70
2019-04-20T05:24:58.044Z,14.17
2019-04-20T05:27:47.923Z,13.93
2019-04-20T05:29:59.208Z,14.43
2019-04-20T05:32:41.325Z,13.87
2019-04-20T05:35:23.678Z,14.53
2019-04-20T05:38:02.622Z,14.17
2019-04-20T05:40:27.400Z,14.57
2019-04-20T05:43:21.562Z,14.17
2019-04-20T05:45:45.039Z,15.23
2019-04-20T05:48:21.927Z,14.43
2019-04-20T05:50:57.689Z,13.80
2019-04-20T05:53:36.952Z,14.17
2019-04-20T05:56:02.864Z,13.93
2019-04-20T05:58:33.048Z,14.43
2019-04-20T06:01:08.967Z,13.73
2019-04-20T06:03:37.168Z,14.03
2019-04-20T06:06:15.109Z,13.40
2019-04-20T06:11:23.469Z,13.43
2019-04-20T06:14:03.729Z,13.63
2019-04-20T06:17:04.768Z,13.50
2019-04-20T06:19:35.886Z,13.83
2019-04-20T06:22:24.716Z,13.25
2019-04-20T06:25:19.186Z,14.13
2019-04-20T06:27:40.889Z,13.50
2019-04-20T06:30:08.577Z,13.62
2019-04-20T06:33:38.640Z,13.50
2019-04-20T06:38:52.461Z,13.80
2019-04-20T06:41:13.082Z,14.55
2019-04-20T06:43:41.161Z,12.33
2019-04-20T06:46:09.999Z,13.10
2019-04-20T06:48:45.893Z,13.30
2019-04-20T06:51:18.834Z,13.08
2019-04-20T06:53:59.632Z,13.08
2019-04-20T06:56:45.873Z,13.13
2019-04-20T06:59:21.486Z,12.65
2019-04-20T07:01:48.975Z,13.03
2019-04-20T07:04:38.320Z,13.80
2019-04-20T07:06:56.192Z,14.33
2019-04-20T07:09:34.999Z,13.88
2019-04-20T07:11:50.487Z,12.33
2019-04-20T07:14:17.615Z,12.07
2019-04-20T07:17:24.423Z,12.15
2019-04-20T07:19:44.461Z,12.88
2019-04-20T07:22:53.495Z,13.05
2019-04-20T07:25:05.431Z,11.10
2019-04-20T07:27:45.077Z,11.45
2019-04-20T07:30:12.349Z,11.53
2019-04-20T07:32:52.441Z,12.53
2019-04-20T07:35:20.960Z,11.68
2019-04-20T07:40:24.706Z,10.25
2019-04-20T07:43:07.715Z,11.08
2019-04-20T07:45:34.874Z,11.35
2019-04-20T07:48:09.312Z,11.08
2019-04-20T07:50:29.650Z,11.35
2019-04-20T07:53:07.184Z,11.15
2019-04-20T07:55:50.794Z,10.78
2019-04-20T07:58:07.574Z,10.88
2019-04-20T08:00:59.997Z,10.50
2019-04-20T08:06:02.304Z,10.95
2019-04-20T08:08:37.633Z,10.53
2019-04-20T08:11:13.873Z,10.05
2019-04-20T08:13:51.279Z,10.13
2019-04-20T08:16:32.879Z,10.28
2019-04-20T08:18:54.035Z,10.05
2019-04-20T08:21:32.745Z,10.03
2019-04-20T08:23:55.723Z,9.68
2019-04-20T08:26:22.599Z,8.85
2019-04-20T08:28:56.343Z,8.48
2019-04-20T08:32:08.592Z,7.80
2019-04-20T08:34:43.175Z,8.35
2019-04-20T08:37:05.948Z,7.75
2019-04-20T08:39:51.149Z,7.70
2019-04-20T08:42:18.632Z,7.87
2019-04-20T08:45:07.794Z,7.45
2019-04-20T08:47:35.249Z,7.70
2019-04-20T08:55:15.001Z,6.60
2019-04-20T08:57:31.374Z,6.62
2019-04-20T09:00:06.882Z,7.15
2019-04-20T09:02:41.199Z,6.90
2019-04-20T09:05:24.916Z,6.72
2019-04-20T09:07:54.224Z,7.00
2019-04-20T09:10:40.834Z,6.78
2019-04-20T09:13:03.958Z,6.35
2019-04-20T09:15:21.541Z,6.28
2019-04-20T09:18:03.842Z,6.00
2019-04-20T09:20:43.509Z,6.72
2019-04-20T09:23:21.563Z,6.37
2019-04-20T09:26:00.385Z,7.12
2019-04-20T09:28:40.562Z,6.80
2019-04-20T09:31:29.680Z,6.05
2019-04-20T09:34:14.427Z,7.00
2019-04-20T09:36:44.576Z,6.30
2019-04-20T09:39:30.453Z,6.62
2019-04-20T09:42:10.247Z,6.58
2019-04-20T09:44:47.427Z,6.85
2019-04-20T09:47:14.141Z,6.80
2019-04-20T09:49:58.060Z,6.80
2019-04-20T09:52:31.247Z,5.83
2019-04-20T09:55:02.724Z,6.72
2019-04-20T09:57:43.659Z,5.60
2019-04-20T10:00:11.873Z,6.03
2019-04-20T10:02:32.603Z,6.55
2019-04-20T10:05:01.898Z,6.95
2019-04-20T10:07:35.419Z,6.25
2019-04-20T10:10:18.821Z,6.12
2019-04-20T10:12:39.840Z,6.35
2019-04-20T10:15:15.965Z,6.53
2019-04-20T10:17:43.678Z,6.75
2019-04-20T10:20:22.283Z,6.97
2019-04-20T10:22:46.790Z,6.58
2019-04-20T10:25:18.327Z,7.40
2019-04-20T10:27:49.542Z,6.90
2019-04-20T10:30:23.029Z,7.03
2019-04-20T10:32:55.435Z,7.03
2019-04-20T10:35:27.539Z,6.40
2019-04-20T10:38:03.275Z,6.83
2019-04-20T10:40:46.377Z,6.10
2019-04-20T10:43:10.211Z,6.30
2019-04-20T10:45:41.213Z,6.37
2019-04-20T10:48:13.141Z,6.55
2019-04-20T10:50:47.150Z,6.20
2019-04-20T10:53:19.583Z,5.72
2019-04-20T10:55:53.973Z,6.58
2019-04-20T10:58:38.035Z,6.62
2019-04-20T11:01:27.410Z,6.28
2019-04-20T11:04:12.517Z,6.53
2019-04-20T11:07:02.858Z,6.30
2019-04-20T11:10:50.848Z,6.45
2019-04-20T11:16:44.711Z,6.45
2019-04-20T11:19:25.298Z,6.62
2019-04-20T11:21:57.089Z,6.53
2019-04-20T11:24:30.201Z,6.22
2019-04-20T11:27:05.418Z,6.45
2019-04-20T11:29:37.962Z,5.95
2019-04-20T11:32:14.060Z,6.33
2019-04-20T11:34:45.387Z,6.00
2019-04-20T11:37:17.235Z,5.62
2019-04-20T11:39:50.800Z,6.50
2019-04-20T11:42:23.804Z,6.58
2019-04-20T11:45:10.812Z,6.45
2019-04-20T11:47:43.163Z,6.40
2019-04-20T11:50:17.728Z,5.65
2019-04-20T11:52:49.953Z,6.00
2019-04-20T11:55:22.297Z,6.75
2019-04-20T11:57:56.465Z,6.37
2019-04-20T12:00:47.176Z,6.58
2019-04-20T12:03:28.139Z,6.30
2019-04-20T12:05:57.348Z,7.90
2019-04-20T12:08:27.067Z,6.47
2019-04-20T12:11:00.284Z,7.15
2019-04-20T12:13:30.978Z,6.15
2019-04-20T12:16:01.634Z,7.35
2019-04-20T12:18:33.599Z,6.80
2019-04-20T12:21:05.709Z,7.50
2019-04-20T12:23:36.396Z,7.37
2019-04-20T12:26:08.790Z,7.40
2019-04-20T12:28:40.187Z,6.72
2019-04-20T12:31:31.512Z,6.85
2019-04-20T12:34:02.322Z,7.00
2019-04-20T12:36:33.232Z,7.10
2019-04-20T12:39:09.309Z,6.95
2019-04-20T12:41:47.132Z,7.20
2019-04-20T12:44:12.218Z,7.47
2019-04-20T12:46:43.718Z,7.05
2019-04-20T12:49:14.206Z,7.40
2019-04-20T12:51:56.208Z,6.97
2019-04-20T12:54:24.732Z,6.53
2019-04-20T12:56:56.314Z,6.03
2019-04-20T12:59:27.531Z,7.00
2019-04-20T13:01:59.448Z,6.60
2019-04-20T13:04:30.206Z,6.10
2019-04-20T13:07:01.790Z,6.30
2019-04-20T13:09:36.783Z,6.60
2019-04-20T13:12:26.485Z,6.87
2019-04-20T13:15:20.423Z,6.05
2019-04-20T13:17:52.852Z,6.03
2019-04-20T13:20:23.863Z,6.20
2019-04-20T13:22:55.022Z,5.85
2019-04-20T13:25:26.811Z,6.03
2019-04-20T13:27:58.862Z,5.90
2019-04-20T13:30:30.079Z,6.35
2019-04-20T13:33:01.700Z,6.05
2019-04-20T13:35:32.396Z,6.20
2019-04-20T13:38:02.896Z,6.28
2019-04-20T13:40:33.489Z,6.00
2019-04-20T13:43:05.535Z,6.08
2019-04-20T13:45:37.147Z,6.35
2019-04-20T13:48:09.049Z,5.78
2019-04-20T13:50:40.061Z,5.45
2019-04-20T13:53:11.580Z,6.05
2019-04-20T13:55:42.362Z,6.03
2019-04-20T13:58:31.935Z,5.42
2019-04-20T14:01:15.607Z,5.90
2019-04-20T14:04:10.791Z,5.35
2019-04-20T14:06:41.845Z,8.98
2019-04-20T14:09:12.880Z,41.02
2019-04-20T14:11:43.488Z,5.20
2019-04-20T14:14:15.184Z,25.08
2019-04-20T14:16:45.731Z,4.10
2019-04-20T14:19:16.722Z,4.67
2019-04-20T14:21:48.135Z,4.40
2019-04-20T14:24:19.156Z,4.25
2019-04-20T14:26:50.736Z,4.62
2019-04-20T14:29:21.307Z,3.33
2019-04-20T14:31:52.679Z,3.80
2019-04-20T14:34:24.656Z,3.70
2019-04-20T14:36:57.117Z,4.00
2019-04-20T14:39:28.058Z,3.40
2019-04-20T14:41:58.534Z,3.45
2019-04-20T14:44:29.935Z,3.77
2019-04-20T14:47:01.770Z,3.85
2019-04-20T14:49:32.621Z,3.87
2019-04-20T14:52:04.394Z,3.58
2019-04-20T14:54:35.454Z,3.40
2019-04-20T14:57:07.722Z,3.85
2019-04-20T14:59:41.802Z,3.40
2019-04-20T15:02:15.447Z,3.70
2019-04-20T15:04:47.321Z,3.45
2019-04-20T15:07:18.362Z,3.40
2019-04-20T15:09:48.932Z,3.60
2019-04-20T15:12:19.474Z,3.52
2019-04-20T15:14:50.394Z,3.60
2019-04-20T15:17:39.416Z,3.98
2019-04-20T15:20:30.314Z,3.50
2019-04-20T15:23:03.508Z,3.20
2019-04-20T15:25:34.717Z,3.05
2019-04-20T15:28:06.137Z,3.47
2019-04-20T15:30:38.303Z,3.60
2019-04-20T15:33:10.396Z,3.40
2019-04-20T15:35:41.935Z,3.87
2019-04-20T15:38:13.314Z,5.97
2019-04-20T15:40:44.858Z,6.05
2019-04-20T15:43:19.282Z,3.58
2019-04-20T15:45:49.570Z,3.50
2019-04-20T15:48:20.091Z,3.17
2019-04-20T15:50:51.905Z,3.27
2019-04-20T15:53:23.875Z,3.77
2019-04-20T15:55:55.580Z,3.85
2019-04-20T15:58:26.286Z,3.37
2019-04-20T16:00:58.497Z,3.35
2019-04-20T16:03:37.348Z,3.87
2019-04-20T16:06:09.443Z,3.75
2019-04-20T16:08:42.109Z,3.62
2019-04-20T16:11:15.123Z,3.90
2019-04-20T16:13:50.420Z,3.62
2019-04-20T16:16:19.591Z,6.37
2019-04-20T16:18:50.696Z,4.12
2019-04-20T16:21:24.909Z,4.10
2019-04-20T16:24:22.435Z,4.10
2019-04-20T16:27:13.619Z,4.28
2019-04-20T16:29:44.289Z,4.00
2019-04-20T16:32:16.522Z,4.05
2019-04-20T16:34:48.394Z,3.90
2019-04-20T16:37:20.159Z,4.08
2019-04-20T16:39:50.884Z,3.98
2019-04-20T16:42:22.325Z,4.10
2019-04-20T16:44:54.081Z,4.17
2019-04-20T16:47:26.031Z,4.20
2019-04-20T16:49:57.124Z,5.10
2019-04-20T16:52:28.798Z,5.05
2019-04-20T16:54:59.701Z,4.78
2019-04-20T16:57:31.800Z,4.45
2019-04-20T17:00:05.352Z,4.75
2019-04-20T17:02:36.782Z,5.22
2019-04-20T17:05:09.199Z,4.65
2019-04-20T17:07:42.886Z,4.30
2019-04-20T17:10:16.060Z,5.05
2019-04-20T17:12:48.016Z,4.30
2019-04-20T17:15:19.592Z,5.35
2019-04-20T17:17:51.621Z,4.58
2019-04-20T17:20:25.082Z,5.85
2019-04-20T17:22:54.659Z,5.12
2019-04-20T17:25:25.991Z,5.35
2019-04-20T17:28:18.579Z,3.92
2019-04-20T17:31:11.772Z,4.30
2019-04-20T17:33:58.470Z,3.80
2019-04-20T17:36:24.589Z,4.15
2019-04-20T17:38:54.453Z,3.80
2019-04-20T17:41:44.646Z,6.90
2019-04-20T17:44:16.978Z,28.95
2019-04-20T17:46:44.371Z,7.37
2019-04-20T17:49:19.726Z,6.00
2019-04-20T17:51:59.153Z,4.90
2019-04-20T17:54:27.279Z,4.03
2019-04-20T17:56:58.303Z,3.80
2019-04-20T17:59:30.408Z,3.40
2019-04-20T18:02:25.532Z,4.22
2019-04-20T18:05:12.731Z,4.65
2019-04-20T18:07:58.922Z,4.70
2019-04-20T18:10:14.296Z,4.62
2019-04-20T18:12:39.757Z,4.92
2019-04-20T18:15:20.504Z,5.40
2019-04-20T18:18:15.384Z,5.70
2019-04-20T18:20:43.037Z,6.30
2019-04-20T18:23:13.853Z,6.70
2019-04-20T18:26:07.778Z,7.22
2019-04-20T18:28:32.681Z,7.78
2019-04-20T18:31:11.272Z,7.60
2019-04-20T18:33:44.509Z,8.73
2019-04-20T18:36:23.732Z,8.63
2019-04-20T18:38:54.294Z,8.75
2019-04-20T18:41:31.898Z,11.00
2019-04-20T18:43:58.807Z,11.22
2019-04-20T18:46:58.692Z,11.85
2019-04-20T18:49:18.206Z,12.73
2019-04-20T18:51:35.584Z,13.75
2019-04-20T18:54:14.705Z,13.05
2019-04-20T18:56:45.134Z,13.43
2019-04-20T18:59:13.347Z,13.50
2019-04-20T19:01:46.350Z,13.85
2019-04-20T19:04:17.684Z,12.07
2019-04-20T19:06:50.011Z,11.03
2019-04-20T19:09:26.256Z,8.65
2019-04-20T19:12:00.398Z,7.97
2019-04-20T19:14:38.863Z,6.17
2019-04-20T19:17:29.077Z,5.50
2019-04-20T19:19:58.267Z,5.08
2019-04-20T19:22:28.066Z,5.70
2019-04-20T19:25:00.041Z,5.47
2019-04-20T19:27:40.000Z,5.60
2019-04-20T19:30:14.888Z,5.42
2019-04-20T19:32:54.555Z,6.05
2019-04-20T19:35:27.172Z,7.17
2019-04-20T19:37:56.573Z,9.68
2019-04-20T19:40:28.805Z,9.43
2019-04-20T19:43:02.538Z,10.50
2019-04-20T19:46:06.641Z,10.40
2019-04-20T19:48:11.951Z,9.03
2019-04-20T19:50:52.966Z,9.20
2019-04-20T19:55:49.196Z,9.85
2019-04-20T19:58:17.496Z,9.18
2019-04-20T20:00:48.116Z,12.15
2019-04-20T20:03:19.438Z,14.70
2019-04-20T20:05:53.846Z,16.55
2019-04-20T20:08:25.930Z,18.20
2019-04-20T20:10:59.947Z,18.20
2019-04-20T20:13:40.063Z,16.25
2019-04-20T20:16:10.528Z,16.00
2019-04-20T20:18:51.212Z,13.48
2019-04-20T20:21:22.533Z,11.50
2019-04-20T20:23:43.859Z,10.35
2019-04-20T20:26:23.197Z,9.68
2019-04-20T20:29:05.035Z,9.58
2019-04-20T20:31:31.018Z,9.85
2019-04-20T20:34:09.761Z,7.42
2019-04-20T20:36:38.337Z,7.85
2019-04-20T20:39:10.996Z,6.90
2019-04-20T20:41:45.062Z,6.30
2019-04-20T20:44:15.685Z,6.25
2019-04-20T20:46:53.472Z,6.20
2019-04-20T20:49:28.876Z,6.42
2019-04-20T20:52:02.539Z,6.72
2019-04-20T20:54:28.319Z,6.28
2019-04-20T20:56:55.599Z,5.83
2019-04-20T20:59:34.729Z,7.15
2019-04-20T21:02:04.396Z,6.40
2019-04-20T21:04:25.788Z,5.95
2019-04-20T21:06:58.083Z,5.65
2019-04-20T21:09:29.292Z,6.55
2019-04-20T21:12:04.841Z,6.70
2019-04-20T21:14:35.360Z,7.00
2019-04-20T21:17:10.797Z,5.95
2019-04-20T21:19:53.712Z,6.35
2019-04-20T21:22:17.043Z,7.05
2019-04-20T21:24:49.812Z,7.28
2019-04-20T21:27:22.002Z,7.03
2019-04-20T21:29:54.715Z,7.45
2019-04-20T21:32:23.869Z,7.92
2019-04-20T21:35:01.266Z,7.75
2019-04-20T21:37:27.309Z,8.18
2019-04-20T21:40:13.202Z,7.20
2019-04-20T21:42:39.668Z,6.80
2019-04-20T21:45:10.277Z,5.97
2019-04-20T21:47:40.848Z,6.20
2019-04-20T21:50:27.096Z,5.33
2019-04-20T21:52:46.766Z,5.58
2019-04-20T21:55:14.590Z,4.65
2019-04-20T21:57:51.623Z,5.12
2019-04-20T22:00:42.559Z,4.53
2019-04-20T22:03:13.306Z,4.50
2019-04-20T22:05:44.299Z,4.25
2019-04-20T22:08:16.423Z,4.55
2019-04-20T22:10:47.085Z,4.55
2019-04-20T22:13:19.364Z,4.62
2019-04-20T22:15:56.578Z,4.70
2019-04-20T22:18:23.953Z,5.58
2019-04-20T22:21:07.750Z,6.45
2019-04-20T22:23:46.666Z,5.70
2019-04-20T22:26:11.876Z,5.55
2019-04-20T22:28:31.985Z,5.75
2019-04-20T22:31:04.121Z,5.75
2019-04-20T22:33:40.007Z,6.15
2019-04-20T22:36:10.788Z,6.62
2019-04-20T22:39:05.265Z,6.22
2019-04-20T22:41:54.596Z,6.33
2019-04-20T22:44:24.532Z,6.15
2019-04-20T22:46:54.277Z,5.83
2019-04-20T22:49:43.074Z,5.85
2019-04-20T22:52:05.857Z,6.45
2019-04-20T22:54:44.635Z,6.10
2019-04-20T22:57:12.938Z,5.97
2019-04-20T22:59:44.751Z,5.80
2019-04-20T23:02:09.450Z,5.70
2019-04-20T23:04:40.235Z,6.22
2019-04-20T23:07:14.600Z,6.08
2019-04-20T23:09:53.928Z,6.58
2019-04-20T23:12:23.313Z,6.63
2019-04-20T23:14:52.329Z,6.22
2019-04-20T23:17:30.154Z,5.70
2019-04-20T23:19:59.500Z,5.75
2019-04-20T23:22:34.807Z,6.03
2019-04-20T23:24:59.874Z,6.17
2019-04-20T23:27:32.103Z,5.75
2019-04-20T23:30:10.167Z,5.20
2019-04-20T23:32:35.911Z,5.70
2019-04-20T23:35:11.875Z,4.80
2019-04-20T23:37:40.570Z,4.87
2019-04-20T23:40:13.730Z,4.90
2019-04-20T23:42:51.752Z,4.80
2019-04-20T23:45:44.724Z,4.83
2019-04-20T23:48:23.628Z,5.42
2019-04-20T23:51:08.175Z,5.22
2019-04-20T23:53:37.255Z,5.05
2019-04-20T23:55:55.359Z,5.47
2019-04-20T23:58:26.471Z,5.60
